Time;durP1;ratioP1;P1;durP2;ratioP2;P2;SDS_P1;SDS_P2;PMS_P1;PMS_P2;Temp;Humidity;BMP_temperature;BMP_pressure;BME280_temperature;BME280_humidity;BME280_pressure;Samples;Min_cycle;Max_cycle;Signal;HPM_P1;HPM_P2
2021/01/02 00:05:25;;;;;;;55.65;20.95;;;;;;;-0.23;100.00;98831.47;4382232;80;44240;-81
2021/01/02 00:12:04;;;;;;;52.43;20.43;;;;;;;-0.44;100.00;98842.84;4296174;81;44159;-80
2021/01/02 00:18:28;;;;;;;54.42;20.92;;;;;;;-0.13;100.00;98845.34;4243069;81;44128;-80
2021/01/02 00:24:54;;;;;;;56.50;20.70;;;;;;;-0.16;100.00;98847.81;4323530;81;44156;-80
2021/01/02 00:31:20;;;;;;;53.05;20.62;;;;;;;0.09;100.00;98854.89;4325588;82;44105;-79
2021/01/02 00:37:43;;;;;;;60.65;22.05;;;;;;;-0.17;100.00;98855.41;4432065;79;106130;-81
2021/01/02 00:43:46;;;;;;;56.53;20.50;;;;;;;-0.25;100.00;98856.73;4369238;81;44120;-80
2021/01/02 00:49:50;;;;;;;52.62;20.40;;;;;;;-0.18;100.00;98854.24;4366561;80;44097;-80
2021/01/02 00:56:00;;;;;;;56.30;20.97;;;;;;;-0.20;100.00;98854.43;4369930;81;44165;-79
2021/01/02 01:02:08;;;;;;;50.10;18.48;;;;;;;-0.36;100.00;98870.27;4369642;80;43757;-79
2021/01/02 01:08:16;;;;;;;51.80;19.48;;;;;;;-0.13;100.00;98874.89;4367584;80;43934;-82
2021/01/02 01:14:19;;;;;;;45.30;17.67;;;;;;;-0.13;100.00;98887.63;4368958;80;43791;-82
2021/01/02 01:20:24;;;;;;;40.43;16.42;;;;;;;-0.06;100.00;98881.17;4347205;81;44780;-82
2021/01/02 01:26:34;;;;;;;49.27;18.42;;;;;;;-0.30;100.00;98877.04;4368191;80;43737;-83
2021/01/02 01:32:39;;;;;;;45.35;18.40;;;;;;;-0.39;100.00;98856.08;4369578;80;43745;-83
2021/01/02 01:38:44;;;;;;;45.35;17.85;;;;;;;-0.58;100.00;98866.77;4374659;81;43773;-82
2021/01/02 01:44:56;;;;;;;50.50;20.37;;;;;;;-0.50;100.00;98860.69;4365976;81;28547;-82
2021/01/02 01:51:31;;;;;;;54.23;21.00;;;;;;;-0.47;100.00;98860.84;4374843;81;44120;-82
2021/01/02 01:57:40;;;;;;;47.00;18.25;;;;;;;-0.61;100.00;98872.39;4292184;82;28546;-82
2021/01/02 02:03:50;;;;;;;47.98;19.12;;;;;;;-0.67;100.00;98876.17;4241412;83;43736;-82
2021/01/02 02:10:00;;;;;;;50.30;19.55;;;;;;;-0.67;100.00;98865.13;4242408;82;43793;-82
2021/01/02 02:16:09;;;;;;;44.63;17.82;;;;;;;-0.55;100.00;98868.27;4237659;82;43761;-82
2021/01/02 02:22:16;;;;;;;44.08;18.85;;;;;;;-0.58;100.00;98875.20;4226403;83;43744;-82
2021/01/02 02:28:54;;;;;;;43.65;17.60;;;;;;;-0.74;100.00;98866.77;4212574;82;43769;-81
2021/01/02 02:34:58;;;;;;;53.85;20.08;;;;;;;-0.54;100.00;98863.82;4157553;83;44163;-80
2021/01/02 02:41:00;;;;;;;44.13;18.80;;;;;;;-0.72;100.00;98864.78;4260725;82;43732;-79
2021/01/02 02:47:04;;;;;;;46.33;18.82;;;;;;;-0.71;100.00;98866.42;4234183;82;43753;-80
2021/01/02 02:53:09;;;;;;;44.40;18.95;;;;;;;-0.79;100.00;98867.72;4341553;80;43734;-80
2021/01/02 02:59:11;;;;;;;54.55;20.77;;;;;;;-0.72;100.00;98861.66;4277768;82;28574;-81
2021/01/02 03:05:19;;;;;;;51.92;19.73;;;;;;;-0.81;100.00;98872.34;4257756;82;43563;-80
2021/01/02 03:11:24;;;;;;;46.58;18.75;;;;;;;-0.85;100.00;98873.16;4260242;83;43733;-81
2021/01/02 03:17:26;;;;;;;49.40;19.45;;;;;;;-0.78;100.00;98868.05;4240486;82;28648;-81
2021/01/02 03:23:28;;;;;;;40.23;16.17;;;;;;;-0.68;100.00;98874.02;4255944;82;44473;-81
2021/01/02 03:29:30;;;;;;;40.08;17.00;;;;;;;-0.77;100.00;98877.14;4260714;82;44442;-81
2021/01/02 03:35:32;;;;;;;39.27;16.37;;;;;;;-0.65;100.00;98863.63;4260611;83;44489;-82
2021/01/02 03:41:35;;;;;;;45.17;18.62;;;;;;;-0.63;100.00;98865.61;4260492;83;43754;-82
2021/01/02 03:47:37;;;;;;;49.50;18.50;;;;;;;-0.66;100.00;98860.66;4247129;82;43761;-82
2021/01/02 03:53:39;;;;;;;39.90;15.93;;;;;;;-0.63;100.00;98870.89;4230914;82;44716;-81
2021/01/02 03:59:42;;;;;;;42.90;17.62;;;;;;;-0.61;100.00;98859.69;4337456;80;42870;-82
2021/01/02 04:05:46;;;;;;;46.00;19.25;;;;;;;-0.57;100.00;98875.53;4361472;80;43757;-81
2021/01/02 04:11:49;;;;;;;44.00;17.90;;;;;;;-0.57;100.00;98879.02;4360968;81;43753;-82
2021/01/02 04:17:51;;;;;;;49.63;19.27;;;;;;;-0.68;100.00;98866.61;4361913;80;44210;-81
2021/01/02 04:23:53;;;;;;;49.20;19.40;;;;;;;-0.79;100.00;98869.05;4361687;82;43757;-81
2021/01/02 04:29:55;;;;;;;47.23;18.45;;;;;;;-0.88;100.00;98867.73;4345153;80;43757;-80
2021/01/02 04:35:57;;;;;;;51.80;20.10;;;;;;;-0.73;100.00;98889.05;4358278;80;44034;-81
2021/01/02 04:42:01;;;;;;;51.70;20.05;;;;;;;-0.64;100.00;98869.23;4338351;82;44056;-81
2021/01/02 04:48:06;;;;;;;51.63;19.50;;;;;;;-0.92;100.00;98877.45;4353008;82;44129;-82
2021/01/02 04:54:10;;;;;;;61.02;21.90;;;;;;;-0.77;100.00;98875.02;4312688;81;28604;-82
2021/01/02 05:00:15;;;;;;;56.83;20.08;;;;;;;-0.82;100.00;98888.70;4232354;83;44150;-81
2021/01/02 05:06:23;;;;;;;54.25;20.52;;;;;;;-0.86;100.00;98891.30;4370746;80;44081;-82
2021/01/02 05:12:31;;;;;;;49.60;18.95;;;;;;;-0.87;100.00;98898.89;4348845;82;43734;-82
2021/01/02 05:18:33;;;;;;;44.38;17.98;;;;;;;-0.96;100.00;98903.33;4344291;82;43730;-82
2021/01/02 05:24:35;;;;;;;47.08;18.82;;;;;;;-0.81;100.00;98906.19;4356451;82;43781;-83
2021/01/02 05:30:38;;;;;;;45.17;18.15;;;;;;;-1.00;100.00;98917.81;4340859;80;43778;-82
2021/01/02 05:36:41;;;;;;;48.20;18.87;;;;;;;-1.01;100.00;98919.64;4337428;81;43745;-82
2021/01/02 05:42:47;;;;;;;53.15;20.00;;;;;;;-0.99;100.00;98924.27;4280958;82;44078;-83
2021/01/02 05:48:49;;;;;;;42.60;16.97;;;;;;;-0.88;100.00;98916.56;4252640;83;43722;-84
2021/01/02 05:54:52;;;;;;;48.50;19.35;;;;;;;-0.82;100.00;98913.77;4209589;82;43765;-84
2021/01/02 06:01:15;;;;;;;43.40;17.48;;;;;;;-0.88;100.00;98933.72;4219786;82;43689;-83
2021/01/02 06:07:17;;;;;;;49.25;17.70;;;;;;;-0.80;100.00;98932.91;4232094;82;43732;-84
2021/01/02 06:13:19;;;;;;;42.90;15.58;;;;;;;-0.95;100.00;98933.17;4257975;82;44466;-84
2021/01/02 06:19:21;;;;;;;37.90;15.58;;;;;;;-1.02;100.00;98936.94;4260520;82;44517;-82
2021/01/02 06:25:23;;;;;;;39.25;15.68;;;;;;;-1.12;100.00;98933.13;4260414;82;44430;-83
2021/01/02 06:31:25;;;;;;;41.95;15.88;;;;;;;-1.28;100.00;98942.59;4254261;83;44501;-82
2021/01/02 06:37:27;;;;;;;46.20;17.85;;;;;;;-1.05;100.00;98948.64;4247879;82;43815;-82
2021/01/02 06:43:39;;;;;;;41.33;16.57;;;;;;;-1.00;100.00;98938.92;4257005;84;44462;-82
2021/01/02 06:49:42;;;;;;;38.80;15.30;;;;;;;-0.88;100.00;98957.48;4262758;82;44762;-82
2021/01/02 06:55:44;;;;;;;43.05;16.62;;;;;;;-1.01;100.00;98946.03;4261477;82;44481;-82
2021/01/02 07:01:46;;;;;;;43.33;16.42;;;;;;;-0.85;100.00;98952.35;4261361;82;44445;-83
2021/01/02 07:07:49;;;;;;;35.68;15.15;;;;;;;-1.04;100.00;98965.31;4292841;81;44368;-82
2021/01/02 07:14:12;;;;;;;48.58;17.25;;;;;;;-1.21;100.00;98958.63;4317525;82;43734;-82
2021/01/02 07:20:15;;;;;;;43.13;17.45;;;;;;;-1.18;100.00;98953.53;4311457;82;42890;-81
2021/01/02 07:26:21;;;;;;;36.42;15.45;;;;;;;-1.28;100.00;98962.89;4311094;82;44448;-81
2021/01/02 07:32:30;;;;;;;41.02;15.25;;;;;;;-1.00;100.00;98970.12;4314252;81;44499;-81
2021/01/02 07:38:33;;;;;;;37.63;14.78;;;;;;;-0.82;100.00;98977.13;4345880;81;44427;-83
2021/01/02 07:44:37;;;;;;;31.23;14.15;;;;;;;-1.03;100.00;98988.08;4356713;81;44164;-81
2021/01/02 07:50:40;;;;;;;34.33;13.80;;;;;;;-0.75;100.00;98976.81;4347781;79;28599;-84
2021/01/02 07:56:42;;;;;;;28.47;13.45;;;;;;;-0.83;100.00;98990.48;4304436;81;43445;-81
2021/01/02 08:02:44;;;;;;;30.15;13.55;;;;;;;-0.65;100.00;98989.06;4235910;84;43452;-81
2021/01/02 08:08:58;;;;;;;37.85;16.02;;;;;;;-0.62;100.00;98982.97;4274311;82;44425;-81
2021/01/02 08:15:00;;;;;;;35.15;13.88;;;;;;;-0.56;100.00;98993.39;4242340;82;44111;-84
2021/01/02 08:21:03;;;;;;;34.03;14.53;;;;;;;-0.45;100.00;98996.23;4345709;81;44273;-84
2021/01/02 08:27:05;;;;;;;40.35;16.57;;;;;;;-0.39;100.00;98989.48;4307323;81;44456;-84
2021/01/02 08:33:10;;;;;;;39.75;15.13;;;;;;;-0.50;100.00;98996.72;4287793;81;44429;-86
2021/01/02 08:39:19;;;;;;;40.80;17.87;;;;;;;-0.38;100.00;99001.70;4356412;80;43710;-86
2021/01/02 08:45:30;;;;;;;42.85;16.10;;;;;;;-0.44;100.00;99009.78;4339439;80;44498;-85
2021/01/02 08:51:32;;;;;;;41.77;15.80;;;;;;;-0.39;100.00;99016.71;4273793;82;44461;-85
2021/01/02 08:57:50;;;;;;;44.93;19.40;;;;;;;-0.21;100.00;99019.26;4170618;84;43787;-82
2021/01/02 09:03:52;;;;;;;46.35;17.90;;;;;;;-0.26;100.00;99022.02;4256295;82;43768;-83
2021/01/02 09:10:20;;;;;;;40.33;17.20;;;;;;;-0.16;100.00;99022.71;4341395;80;44471;-85
2021/01/02 09:16:22;;;;;;;36.13;15.53;;;;;;;0.04;100.00;99029.87;4351035;80;44483;-84
2021/01/02 09:22:25;;;;;;;34.10;14.93;;;;;;;0.23;100.00;99039.81;4354723;80;44094;-84
2021/01/02 09:28:31;;;;;;;32.65;14.90;;;;;;;0.27;100.00;99043.29;4327988;81;44117;-85
2021/01/02 09:34:33;;;;;;;;;;;;;;;0.45;100.00;99043.61;4354800;81;28536;-85
2021/01/02 09:40:42;;;;;;;32.88;15.08;;;;;;;0.75;100.00;99037.83;4353107;80;20402;-85
2021/01/02 09:46:45;;;;;;;35.83;14.10;;;;;;;1.13;100.00;99038.06;4345673;80;28543;-85
2021/01/02 09:52:47;;;;;;;31.97;14.80;;;;;;;1.20;100.00;99040.37;4353191;80;28633;-85
2021/01/02 09:58:49;;;;;;;41.73;17.73;;;;;;;1.57;100.00;99039.41;4353968;80;28594;-86
2021/01/02 10:04:51;;;;;;;33.70;15.60;;;;;;;1.59;100.00;99029.45;4336870;80;28618;-84
2021/01/02 10:10:56;;;;;;;36.30;15.15;;;;;;;1.64;100.00;99026.28;4266535;82;44450;-85
2021/01/02 10:16:59;;;;;;;33.18;15.05;;;;;;;1.60;100.00;99037.72;4270574;82;28641;-84
2021/01/02 10:23:02;;;;;;;39.92;17.15;;;;;;;1.65;100.00;99022.62;4353787;80;28607;-83
2021/01/02 10:29:05;;;;;;;41.83;18.35;;;;;;;1.81;100.00;99006.65;4332421;82;28589;-86
2021/01/02 10:35:12;;;;;;;33.70;16.25;;;;;;;1.84;100.00;98996.20;4347033;80;28617;-83
2021/01/02 10:41:15;;;;;;;41.65;18.17;;;;;;;2.10;100.00;98999.00;4353446;81;44440;-84
2021/01/02 10:47:23;;;;;;;34.83;15.80;;;;;;;2.15;100.00;98991.84;4353244;82;28642;-80
2021/01/02 10:53:25;;;;;;;35.33;16.60;;;;;;;2.45;100.00;98984.81;4333347;80;28594;-83
2021/01/02 10:59:27;;;;;;;36.58;15.88;;;;;;;2.75;100.00;98973.41;4342545;82;28544;-83
2021/01/02 11:05:29;;;;;;;38.45;18.02;;;;;;;2.90;100.00;98968.91;4362498;82;28563;-83
2021/01/02 11:11:32;;;;;;;34.83;16.25;;;;;;;2.90;100.00;98961.47;4354209;82;28603;-83
2021/01/02 11:17:35;;;;;;;36.17;17.15;;;;;;;3.25;100.00;98966.22;4363578;82;28556;-83
2021/01/02 11:23:37;;;;;;;42.45;18.42;;;;;;;3.23;100.00;98952.27;4355548;80;28625;-83
2021/01/02 11:29:39;;;;;;;38.40;18.57;;;;;;;3.49;100.00;98946.48;4362927;80;28592;-83
2021/01/02 11:35:41;;;;;;;42.50;19.15;;;;;;;3.49;100.00;98945.95;4337616;81;28658;-83
2021/01/02 11:41:44;;;;;;;41.55;18.12;;;;;;;3.57;100.00;98944.20;4362264;80;28548;-82
2021/01/02 11:47:46;;;;;;;40.90;19.10;;;;;;;3.63;100.00;98941.61;4362082;82;28548;-83
2021/01/02 11:53:49;;;;;;;39.58;18.12;;;;;;;3.49;100.00;98941.16;4357907;81;28609;-82
2021/01/02 11:59:51;;;;;;;44.40;20.35;;;;;;;3.71;100.00;98926.56;4343281;80;28555;-81
2021/01/02 12:05:54;;;;;;;48.78;22.02;;;;;;;3.70;100.00;98932.38;4361175;82;28544;-84
2021/01/02 12:11:58;;;;;;;46.70;21.60;;;;;;;3.57;100.00;98922.41;4334079;80;28660;-83
2021/01/02 12:18:01;;;;;;;46.08;21.27;;;;;;;3.39;100.00;98916.19;4334864;80;28578;-85
2021/01/02 12:24:04;;;;;;;47.33;22.32;;;;;;;3.23;100.00;98927.86;4361985;80;28605;-84
2021/01/02 12:30:08;;;;;;;43.38;20.37;;;;;;;3.23;100.00;98920.38;4349703;80;28551;-85
2021/01/02 12:36:12;;;;;;;48.35;20.90;;;;;;;3.40;100.00;98924.48;4337185;80;28664;-82
2021/01/02 12:42:15;;;;;;;46.70;22.17;;;;;;;3.27;100.00;98926.99;4352839;80;28532;-82
2021/01/02 12:48:18;;;;;;;42.35;20.90;;;;;;;3.24;100.00;98926.85;4363448;80;29024;-83
2021/01/02 12:54:22;;;;;;;40.15;19.35;;;;;;;3.22;100.00;98928.88;4350901;80;28542;-81
2021/01/02 13:00:25;;;;;;;48.42;23.35;;;;;;;3.32;100.00;98932.55;4282678;82;28598;-82
2021/01/02 13:06:27;;;;;;;46.10;22.98;;;;;;;3.25;100.00;98939.64;4238700;82;28572;-82
2021/01/02 13:12:29;;;;;;;46.75;21.65;;;;;;;3.27;100.00;98933.63;4235686;82;28683;-84
2021/01/02 13:18:31;;;;;;;43.28;21.68;;;;;;;3.29;100.00;98940.42;4219901;83;28603;-83
2021/01/02 13:24:35;;;;;;;48.42;22.82;;;;;;;3.31;100.00;98942.87;4358782;80;28602;-85
2021/01/02 13:30:37;;;;;;;47.73;23.40;;;;;;;3.56;100.00;98940.70;4353432;80;28556;-83
2021/01/02 13:36:44;;;;;;;48.55;23.07;;;;;;;3.74;100.00;98952.24;4360649;80;28951;-83
2021/01/02 13:42:46;;;;;;;45.40;22.50;;;;;;;3.76;100.00;98958.22;4345420;81;28547;-84
2021/01/02 13:48:49;;;;;;;48.08;22.55;;;;;;;3.69;100.00;98959.14;4352989;80;28669;-82
2021/01/02 13:54:53;;;;;;;49.80;22.55;;;;;;;3.56;100.00;98971.28;4356593;81;28546;-81
2021/01/02 14:00:55;;;;;;;45.98;21.82;;;;;;;3.57;100.00;98970.27;4361400;80;28630;-81
2021/01/02 14:06:58;;;;;;;46.80;23.42;;;;;;;3.55;100.00;98968.83;4358203;80;28551;-82
2021/01/02 14:13:04;;;;;;;46.20;23.77;;;;;;;3.39;100.00;98968.54;4359768;81;28570;-80
2021/01/02 14:19:06;;;;;;;53.90;26.00;;;;;;;3.28;100.00;98974.65;4365451;80;28627;-82
2021/01/02 14:25:10;;;;;;;46.02;23.10;;;;;;;3.10;100.00;98978.19;4361381;81;28649;-81
2021/01/02 14:31:13;;;;;;;44.45;23.42;;;;;;;2.82;100.00;98979.64;4354555;81;28626;-82
2021/01/02 14:37:15;;;;;;;47.00;23.75;;;;;;;2.73;100.00;98982.87;4339413;80;28585;-81
2021/01/02 14:43:18;;;;;;;48.78;24.87;;;;;;;2.71;100.00;98984.89;4319997;80;28633;-81
2021/01/02 14:49:20;;;;;;;48.55;23.40;;;;;;;2.68;100.00;98992.38;4323196;80;28614;-81
2021/01/02 14:55:24;;;;;;;43.55;22.02;;;;;;;2.71;100.00;98995.99;4336953;81;28556;-79
2021/01/02 15:01:26;;;;;;;60.33;27.62;;;;;;;2.80;100.00;98989.59;4359618;81;28548;-80
2021/01/02 15:07:28;;;;;;;48.83;24.52;;;;;;;2.73;100.00;98980.73;4355169;82;28624;-78
2021/01/02 15:13:31;;;;;;;49.35;24.90;;;;;;;2.68;100.00;98988.41;4341449;81;28609;-80
2021/01/02 15:19:33;;;;;;;46.48;22.22;;;;;;;2.77;100.00;98985.50;4355404;80;28594;-85
2021/01/02 15:25:35;;;;;;;56.02;27.50;;;;;;;2.78;100.00;98982.33;4278317;82;28586;-83
2021/01/02 15:31:44;;;;;;;50.43;24.60;;;;;;;2.73;100.00;98980.73;4260564;82;28576;-81
2021/01/02 15:37:47;;;;;;;48.65;25.35;;;;;;;2.71;100.00;98970.28;4260067;82;28630;-80
2021/01/02 15:43:49;;;;;;;53.48;27.82;;;;;;;2.49;100.00;98962.20;4254908;82;28652;-82
2021/01/02 15:49:53;;;;;;;56.45;28.77;;;;;;;2.33;100.00;98964.99;4271442;82;28544;-83
2021/01/02 15:55:56;;;;;;;47.33;23.85;;;;;;;2.25;100.00;98962.43;4301325;82;28554;-83
2021/01/02 16:02:00;;;;;;;50.65;24.07;;;;;;;2.15;100.00;98956.87;4305742;82;28549;-81
2021/01/02 16:08:03;;;;;;;46.13;22.58;;;;;;;2.13;100.00;98960.17;4312498;82;28562;-87
2021/01/02 16:14:08;;;;;;;50.90;24.77;;;;;;;2.25;100.00;98970.39;4289971;82;28614;-88
2021/01/02 16:20:11;;;;;;;52.73;25.80;;;;;;;2.26;100.00;98964.08;4317006;82;28596;-84
2021/01/02 16:26:14;;;;;;;48.65;25.90;;;;;;;2.19;100.00;98963.97;4319888;82;28552;-87
2021/01/02 16:32:22;;;;;;;54.75;27.27;;;;;;;2.01;100.00;98961.60;4318306;81;28974;-82
2021/01/02 16:38:25;;;;;;;49.58;25.92;;;;;;;1.93;100.00;98961.17;4331763;81;28614;-86
2021/01/02 16:44:27;;;;;;;54.60;27.05;;;;;;;1.85;100.00;98966.03;4345540;82;28627;-84
2021/01/02 16:50:29;;;;;;;47.23;24.40;;;;;;;2.05;100.00;98973.52;4362247;80;28575;-84
2021/01/02 16:56:31;;;;;;;47.80;24.50;;;;;;;1.81;100.00;98970.02;4273284;82;28563;-82
2021/01/02 17:02:35;;;;;;;60.92;29.82;;;;;;;1.63;100.00;98969.81;4195150;84;28574;-84
2021/01/02 17:08:37;;;;;;;58.68;27.80;;;;;;;1.64;100.00;98956.89;4280793;82;28604;-83
2021/01/02 17:14:40;;;;;;;43.63;23.98;;;;;;;1.71;100.00;98958.33;4183876;83;28592;-83
2021/01/02 17:20:43;;;;;;;51.00;25.60;;;;;;;1.28;100.00;98959.23;4166567;85;28577;-83
2021/01/02 17:26:46;;;;;;;49.40;25.08;;;;;;;1.30;100.00;98951.94;4245098;82;28559;-80
2021/01/02 17:32:50;;;;;;;48.50;23.65;;;;;;;1.18;100.00;98960.27;4251950;82;28607;-82
2021/01/02 17:38:55;;;;;;;57.00;29.12;;;;;;;1.21;100.00;98949.83;4253342;82;28580;-82
2021/01/02 17:44:57;;;;;;;47.67;23.57;;;;;;;1.60;100.00;98949.46;4227099;83;28642;-82
2021/01/02 17:50:59;;;;;;;45.63;24.27;;;;;;;1.14;100.00;98947.02;4203749;84;28614;-84
2021/01/02 17:57:01;;;;;;;49.13;25.02;;;;;;;0.88;100.00;98941.98;4191371;84;28545;-83
2021/01/02 18:03:04;;;;;;;47.98;25.68;;;;;;;0.85;100.00;98948.47;4236190;83;28600;-86
2021/01/02 18:09:08;;;;;;;57.30;28.23;;;;;;;0.98;100.00;98939.97;4250502;83;28587;-86
2021/01/02 18:15:13;;;;;;;50.55;25.40;;;;;;;1.21;100.00;98949.31;4186316;84;28660;-81
2021/01/02 18:21:15;;;;;;;55.90;28.55;;;;;;;1.11;100.00;98956.16;4235855;83;28598;-86
2021/01/02 18:27:17;;;;;;;52.50;23.40;;;;;;;1.22;100.00;98962.08;4230982;84;28650;-86
2021/01/02 18:33:19;;;;;;;54.42;25.30;;;;;;;0.77;100.00;98955.11;4212763;84;28602;-87
2021/01/02 18:39:22;;;;;;;47.08;23.85;;;;;;;1.09;100.00;98957.31;4243222;82;28599;-85
2021/01/02 18:45:24;;;;;;;50.92;24.92;;;;;;;0.84;100.00;98970.65;4262453;83;28557;-86
2021/01/02 18:51:32;;;;;;;50.88;24.45;;;;;;;0.73;100.00;98967.84;4247625;83;28613;-85
2021/01/02 18:57:36;;;;;;;47.30;24.67;;;;;;;0.65;100.00;98963.41;4218425;83;28584;-85
2021/01/02 19:03:38;;;;;;;50.25;24.75;;;;;;;0.70;100.00;98974.81;4251090;83;44434;-85
2021/01/02 19:09:41;;;;;;;55.25;28.02;;;;;;;0.56;100.00;98972.34;4215175;82;28545;-86
2021/01/02 19:15:43;;;;;;;58.28;30.30;;;;;;;0.67;100.00;98965.37;4249015;83;28629;-86
2021/01/02 19:21:47;;;;;;;49.03;24.35;;;;;;;0.83;100.00;98952.60;4254663;82;28603;-88
2021/01/02 19:27:50;;;;;;;63.08;30.45;;;;;;;0.55;100.00;98963.57;4191292;85;28567;-85
2021/01/02 19:33:53;;;;;;;61.92;30.05;;;;;;;0.75;100.00;98969.82;4220665;84;43406;-87
2021/01/02 19:39:55;;;;;;;63.83;31.35;;;;;;;0.39;100.00;98978.97;4145829;84;28575;-85
2021/01/02 19:45:57;;;;;;;62.80;30.37;;;;;;;0.46;100.00;98984.41;4201017;83;28554;-80
2021/01/02 19:52:03;;;;;;;62.62;30.55;;;;;;;0.34;100.00;98969.40;4365827;80;43390;-81
2021/01/02 19:58:05;;;;;;;;;;;;;;;0.49;100.00;98977.97;4354899;80;28999;-83
2021/01/02 20:04:10;;;;;;;57.43;27.48;;;;;;;0.39;100.00;98971.55;4360195;80;20265;-84
2021/01/02 20:10:14;;;;;;;58.80;28.20;;;;;;;0.47;100.00;98970.70;4353978;80;28624;-82
2021/01/02 20:16:27;;;;;;;63.60;30.45;;;;;;;0.36;100.00;98964.77;4336877;80;28589;-81
2021/01/02 20:22:30;;;;;;;61.02;29.90;;;;;;;0.39;100.00;98970.22;4335775;81;28579;-84
2021/01/02 20:28:33;;;;;;;64.25;30.23;;;;;;;0.31;100.00;98948.55;4356164;80;28594;-85
2021/01/02 20:34:42;;;;;;;58.42;28.40;;;;;;;0.35;100.00;98953.02;4288254;81;28574;-84
2021/01/02 20:40:44;;;;;;;66.62;30.85;;;;;;;0.27;100.00;98948.08;4339043;81;28575;-84
2021/01/02 20:46:46;;;;;;;66.72;30.85;;;;;;;0.31;100.00;98957.80;4321365;82;44101;-83
2021/01/02 20:52:49;;;;;;;67.22;31.85;;;;;;;0.22;100.00;98953.03;4357646;81;44104;-84
2021/01/02 20:58:52;;;;;;;65.28;32.65;;;;;;;0.37;100.00;98950.55;4353240;81;44085;-85
2021/01/02 21:04:55;;;;;;;70.05;35.03;;;;;;;0.53;100.00;98964.76;4357324;81;28626;-86
2021/01/02 21:10:58;;;;;;;68.02;35.43;;;;;;;0.64;100.00;98968.38;4353552;82;44278;-84
2021/01/02 21:17:05;;;;;;;67.53;35.65;;;;;;;0.41;100.00;98964.27;4238323;82;28564;-80
2021/01/02 21:23:07;;;;;;;77.80;38.17;;;;;;;0.33;100.00;98961.62;4303004;81;28562;-80
2021/01/02 21:29:12;;;;;;;76.20;38.53;;;;;;;0.46;100.00;98955.83;4358899;82;28608;-84
2021/01/02 21:35:14;;;;;;;73.20;36.68;;;;;;;0.50;100.00;98963.27;4368274;81;28539;-85
2021/01/02 21:41:20;;;;;;;73.85;36.15;;;;;;;0.44;100.00;98967.89;4337391;80;44465;-86
2021/01/02 21:47:24;;;;;;;74.55;36.30;;;;;;;0.30;100.00;98975.19;4363938;80;28612;-83
2021/01/02 21:53:27;;;;;;;75.85;36.17;;;;;;;0.21;100.00;98976.50;4343757;80;44446;-86
2021/01/02 21:59:30;;;;;;;75.12;36.28;;;;;;;0.34;100.00;98979.14;4361730;80;28626;-84
2021/01/02 22:05:32;;;;;;;71.12;34.30;;;;;;;0.65;100.00;98977.96;4358207;80;44081;-81
2021/01/02 22:11:34;;;;;;;74.70;34.92;;;;;;;0.39;100.00;98974.19;4373799;80;43668;-83
2021/01/02 22:17:38;;;;;;;79.70;37.78;;;;;;;0.33;100.00;98966.42;4357389;80;43394;-84
2021/01/02 22:23:49;;;;;;;70.03;34.20;;;;;;;0.18;100.00;98970.23;4318319;80;28607;-85
2021/01/02 22:29:53;;;;;;;65.17;32.55;;;;;;;0.38;100.00;98972.55;4274121;82;44143;-85
2021/01/02 22:35:55;;;;;;;73.10;36.13;;;;;;;0.39;100.00;98964.42;4257831;82;43701;-85
